Alindao Airport


Codes: FEFA/
Name: Alindao Airport
City: Alindao
Country: Central African Republic
Elevation: 1470 ft.
Wikipedia:

Photos at Alindao Airport


   Photos courtesy of SpottingLog. You can add your own sightings and photos by signing up for a free trial today.



No photos found.

Weather at Alindao Airport


Time (UTC)DescriptionTempratureWindCloud coverageVisibilityPressureHumidity
16-Jun-2024 12:00Overcast Clouds24°C2 mph, NW100%10000m1012hPa85%
16-Jun-2024 15:00Overcast Clouds25°C2 mph, SW100%10000m1010hPa76%
16-Jun-2024 18:00Overcast Clouds23°C2 mph, S98%10000m1010hPa84%
16-Jun-2024 21:00Overcast Clouds22°C2 mph, E91%10000m1013hPa90%
17-Jun-2024 00:00Overcast Clouds22°C2 mph, S93%10000m1012hPa88%
17-Jun-2024 03:00Overcast Clouds20°C2 mph, S99%10000m1013hPa97%
17-Jun-2024 06:00Overcast Clouds23°C2 mph, S91%10000m1014hPa86%
17-Jun-2024 09:00Overcast Clouds29°C4 mph, S94%10000m1013hPa60%
17-Jun-2024 12:00Overcast Clouds32°C2 mph, S91%10000m1010hPa48%
17-Jun-2024 15:00Broken Clouds29°C4 mph, SW77%10000m1009hPa66%
17-Jun-2024 18:00Light Rain24°C4 mph, SE56%10000m1011hPa84%
17-Jun-2024 21:00Light Rain21°C4 mph, S64%10000m1013hPa99%
18-Jun-2024 00:00Broken Clouds20°C2 mph, SW70%10000m1012hPa96%
18-Jun-2024 03:00Broken Clouds20°C2 mph, SW82%10000m1012hPa95%
18-Jun-2024 06:00Overcast Clouds22°C2 mph, S85%10000m1014hPa89%
18-Jun-2024 09:00Few Clouds30°C4 mph, S19%10000m1013hPa52%
18-Jun-2024 12:00Few Clouds33°C2 mph, S17%10000m1010hPa42%
18-Jun-2024 15:00Broken Clouds32°C2 mph, E83%10000m1009hPa50%
18-Jun-2024 18:00Broken Clouds26°C0 mph, SW80%10000m1009hPa64%
18-Jun-2024 21:00Overcast Clouds24°C0 mph, SW98%10000m1011hPa72%
19-Jun-2024 00:00Broken Clouds23°C2 mph, N67%10000m1011hPa76%
19-Jun-2024 03:00Broken Clouds22°C2 mph, N73%10000m1011hPa80%
19-Jun-2024 06:00Broken Clouds24°C4 mph, NE83%10000m1013hPa76%
19-Jun-2024 09:00Overcast Clouds31°C0 mph, N98%10000m1013hPa57%
19-Jun-2024 12:00Broken Clouds34°C0 mph, N64%10000m1009hPa42%
19-Jun-2024 15:00Light Rain29°C9 mph, E71%10000m1008hPa65%
19-Jun-2024 18:00Light Rain22°C4 mph, W80%10000m1010hPa89%
19-Jun-2024 21:00Overcast Clouds23°C4 mph, N100%10000m1012hPa88%
20-Jun-2024 00:00Overcast Clouds22°C2 mph, N99%10000m1011hPa92%
20-Jun-2024 03:00Overcast Clouds21°C2 mph, N100%10000m1011hPa95%
20-Jun-2024 06:00Light Rain24°C2 mph, NE90%10000m1013hPa88%
20-Jun-2024 09:00Broken Clouds32°C2 mph, E75%10000m1012hPa55%
20-Jun-2024 12:00Broken Clouds35°C2 mph, S67%10000m1009hPa40%
20-Jun-2024 15:00Overcast Clouds34°C0 mph, W89%10000m1007hPa46%
20-Jun-2024 18:00Overcast Clouds27°C2 mph, NE90%10000m1009hPa63%
20-Jun-2024 21:00Light Rain23°C4 mph, NE96%10000m1011hPa92%
21-Jun-2024 00:00Light Rain22°C2 mph, S94%10000m1011hPa94%
21-Jun-2024 03:00Broken Clouds21°C2 mph, NE77%10000m1011hPa91%
21-Jun-2024 06:00Light Rain23°C2 mph, S78%10000m1013hPa87%
21-Jun-2024 09:00Broken Clouds32°C2 mph, S53%10000m1012hPa53%